sensor_id;sensor_type;location;lat;lon;timestamp;P1;durP1;ratioP1;P2;durP2;ratioP2
53925;SDS011;39836;52.754;6.866;2023-03-05T00:00:15;11.95;;;3.20;;
53925;SDS011;39836;52.754;6.866;2023-03-05T00:02:41;10.05;;;3.60;;
53925;SDS011;39836;52.754;6.866;2023-03-05T00:05:07;9.15;;;3.20;;
53925;SDS011;39836;52.754;6.866;2023-03-05T00:07:33;8.88;;;3.30;;
53925;SDS011;39836;52.754;6.866;2023-03-05T00:09:59;12.95;;;3.13;;
53925;SDS011;39836;52.754;6.866;2023-03-05T00:12:26;8.80;;;2.90;;
53925;SDS011;39836;52.754;6.866;2023-03-05T00:14:51;9.25;;;3.33;;
53925;SDS011;39836;52.754;6.866;2023-03-05T00:17:17;10.45;;;3.80;;
53925;SDS011;39836;52.754;6.866;2023-03-05T00:19:43;9.90;;;3.30;;
53925;SDS011;39836;52.754;6.866;2023-03-05T00:22:08;11.43;;;3.42;;
53925;SDS011;39836;52.754;6.866;2023-03-05T00:24:34;14.07;;;3.63;;
53925;SDS011;39836;52.754;6.866;2023-03-05T00:27:00;16.15;;;3.50;;
53925;SDS011;39836;52.754;6.866;2023-03-05T00:29:26;10.70;;;3.13;;
53925;SDS011;39836;52.754;6.866;2023-03-05T00:31:52;7.93;;;3.45;;
53925;SDS011;39836;52.754;6.866;2023-03-05T00:34:18;6.30;;;2.70;;
53925;SDS011;39836;52.754;6.866;2023-03-05T00:36:46;7.40;;;2.80;;
53925;SDS011;39836;52.754;6.866;2023-03-05T00:39:13;16.02;;;3.97;;
53925;SDS011;39836;52.754;6.866;2023-03-05T00:41:41;13.55;;;3.22;;
53925;SDS011;39836;52.754;6.866;2023-03-05T00:44:07;13.63;;;3.97;;
53925;SDS011;39836;52.754;6.866;2023-03-05T00:46:33;12.52;;;3.60;;
53925;SDS011;39836;52.754;6.866;2023-03-05T00:48:59;6.97;;;3.17;;
53925;SDS011;39836;52.754;6.866;2023-03-05T00:51:25;9.02;;;2.70;;
53925;SDS011;39836;52.754;6.866;2023-03-05T00:53:51;12.57;;;3.67;;
53925;SDS011;39836;52.754;6.866;2023-03-05T00:56:17;11.07;;;3.40;;
53925;SDS011;39836;52.754;6.866;2023-03-05T00:58:43;11.18;;;3.58;;
53925;SDS011;39836;52.754;6.866;2023-03-05T01:01:08;14.30;;;4.13;;
53925;SDS011;39836;52.754;6.866;2023-03-05T01:03:34;10.75;;;2.80;;
53925;SDS011;39836;52.754;6.866;2023-03-05T01:06:02;7.57;;;3.03;;
53925;SDS011;39836;52.754;6.866;2023-03-05T01:08:29;11.77;;;2.90;;
53925;SDS011;39836;52.754;6.866;2023-03-05T01:10:55;7.25;;;2.88;;
53925;SDS011;39836;52.754;6.866;2023-03-05T01:13:21;10.13;;;3.55;;
53925;SDS011;39836;52.754;6.866;2023-03-05T01:15:47;7.90;;;2.97;;
53925;SDS011;39836;52.754;6.866;2023-03-05T01:18:15;9.18;;;2.72;;
53925;SDS011;39836;52.754;6.866;2023-03-05T01:20:41;9.13;;;3.10;;
53925;SDS011;39836;52.754;6.866;2023-03-05T01:23:07;8.40;;;2.78;;
53925;SDS011;39836;52.754;6.866;2023-03-05T01:25:33;7.65;;;2.58;;
53925;SDS011;39836;52.754;6.866;2023-03-05T01:27:59;8.05;;;2.88;;
53925;SDS011;39836;52.754;6.866;2023-03-05T01:30:24;12.45;;;3.05;;
53925;SDS011;39836;52.754;6.866;2023-03-05T01:32:50;5.68;;;3.17;;
53925;SDS011;39836;52.754;6.866;2023-03-05T01:35:17;9.48;;;2.70;;
53925;SDS011;39836;52.754;6.866;2023-03-05T01:37:44;9.02;;;3.38;;
53925;SDS011;39836;52.754;6.866;2023-03-05T01:40:11;11.80;;;3.10;;
53925;SDS011;39836;52.754;6.866;2023-03-05T01:42:39;8.32;;;3.13;;
53925;SDS011;39836;52.754;6.866;2023-03-05T01:45:09;9.35;;;3.38;;
53925;SDS011;39836;52.754;6.866;2023-03-05T01:47:37;7.13;;;3.03;;
53925;SDS011;39836;52.754;6.866;2023-03-05T01:50:04;9.45;;;3.25;;
53925;SDS011;39836;52.754;6.866;2023-03-05T01:52:33;9.80;;;3.28;;
53925;SDS011;39836;52.754;6.866;2023-03-05T01:55:04;6.72;;;2.83;;
53925;SDS011;39836;52.754;6.866;2023-03-05T01:57:40;9.10;;;3.70;;
53925;SDS011;39836;52.754;6.866;2023-03-05T02:00:13;8.88;;;3.25;;
53925;SDS011;39836;52.754;6.866;2023-03-05T02:02:43;11.27;;;3.58;;
53925;SDS011;39836;52.754;6.866;2023-03-05T02:05:12;15.73;;;3.53;;
53925;SDS011;39836;52.754;6.866;2023-03-05T02:07:42;10.10;;;3.70;;
53925;SDS011;39836;52.754;6.866;2023-03-05T02:12:41;13.48;;;3.50;;
53925;SDS011;39836;52.754;6.866;2023-03-05T02:15:07;10.80;;;3.40;;
53925;SDS011;39836;52.754;6.866;2023-03-05T02:17:33;10.65;;;3.72;;
53925;SDS011;39836;52.754;6.866;2023-03-05T02:20:07;6.10;;;3.50;;
53925;SDS011;39836;52.754;6.866;2023-03-05T02:22:35;9.68;;;3.45;;
53925;SDS011;39836;52.754;6.866;2023-03-05T02:25:01;15.40;;;4.20;;
53925;SDS011;39836;52.754;6.866;2023-03-05T02:27:37;10.85;;;3.63;;
53925;SDS011;39836;52.754;6.866;2023-03-05T02:30:05;7.53;;;3.50;;
53925;SDS011;39836;52.754;6.866;2023-03-05T02:32:31;11.27;;;3.28;;
53925;SDS011;39836;52.754;6.866;2023-03-05T02:34:56;8.45;;;3.58;;
53925;SDS011;39836;52.754;6.866;2023-03-05T02:37:22;10.75;;;3.53;;
53925;SDS011;39836;52.754;6.866;2023-03-05T02:39:48;9.88;;;4.22;;
53925;SDS011;39836;52.754;6.866;2023-03-05T02:42:13;19.40;;;4.55;;
53925;SDS011;39836;52.754;6.866;2023-03-05T02:44:39;12.30;;;4.47;;
53925;SDS011;39836;52.754;6.866;2023-03-05T02:47:05;11.90;;;3.95;;
53925;SDS011;39836;52.754;6.866;2023-03-05T02:49:30;14.27;;;3.67;;
53925;SDS011;39836;52.754;6.866;2023-03-05T02:51:56;11.75;;;3.65;;
53925;SDS011;39836;52.754;6.866;2023-03-05T02:54:22;8.82;;;3.60;;
53925;SDS011;39836;52.754;6.866;2023-03-05T02:56:48;10.82;;;4.10;;
53925;SDS011;39836;52.754;6.866;2023-03-05T02:59:13;9.13;;;3.53;;
53925;SDS011;39836;52.754;6.866;2023-03-05T03:01:39;13.25;;;3.90;;
53925;SDS011;39836;52.754;6.866;2023-03-05T03:04:05;10.60;;;3.63;;
53925;SDS011;39836;52.754;6.866;2023-03-05T03:06:31;13.25;;;4.57;;
53925;SDS011;39836;52.754;6.866;2023-03-05T03:08:56;9.57;;;4.10;;
53925;SDS011;39836;52.754;6.866;2023-03-05T03:11:22;10.85;;;4.20;;
53925;SDS011;39836;52.754;6.866;2023-03-05T03:13:48;8.65;;;3.20;;
53925;SDS011;39836;52.754;6.866;2023-03-05T03:16:14;10.43;;;3.42;;
53925;SDS011;39836;52.754;6.866;2023-03-05T03:18:40;7.65;;;3.60;;
53925;SDS011;39836;52.754;6.866;2023-03-05T03:21:06;14.63;;;4.03;;
53925;SDS011;39836;52.754;6.866;2023-03-05T03:23:32;15.75;;;3.90;;
53925;SDS011;39836;52.754;6.866;2023-03-05T03:25:58;9.30;;;4.05;;
53925;SDS011;39836;52.754;6.866;2023-03-05T03:28:24;12.63;;;3.97;;
53925;SDS011;39836;52.754;6.866;2023-03-05T03:30:50;7.60;;;3.78;;
53925;SDS011;39836;52.754;6.866;2023-03-05T03:33:16;12.27;;;4.10;;
53925;SDS011;39836;52.754;6.866;2023-03-05T03:35:43;13.00;;;4.78;;
53925;SDS011;39836;52.754;6.866;2023-03-05T03:38:10;11.50;;;4.00;;
53925;SDS011;39836;52.754;6.866;2023-03-05T03:40:37;14.10;;;4.32;;
53925;SDS011;39836;52.754;6.866;2023-03-05T03:43:05;13.15;;;4.80;;
53925;SDS011;39836;52.754;6.866;2023-03-05T03:45:30;12.65;;;3.90;;
53925;SDS011;39836;52.754;6.866;2023-03-05T03:47:56;14.18;;;4.70;;
53925;SDS011;39836;52.754;6.866;2023-03-05T03:50:22;14.13;;;4.75;;
53925;SDS011;39836;52.754;6.866;2023-03-05T03:52:49;14.75;;;4.65;;
53925;SDS011;39836;52.754;6.866;2023-03-05T03:55:15;11.75;;;4.05;;
53925;SDS011;39836;52.754;6.866;2023-03-05T03:57:40;12.27;;;4.10;;
53925;SDS011;39836;52.754;6.866;2023-03-05T04:00:08;10.48;;;3.90;;
53925;SDS011;39836;52.754;6.866;2023-03-05T04:02:35;9.20;;;3.80;;
53925;SDS011;39836;52.754;6.866;2023-03-05T04:05:01;18.23;;;3.85;;
53925;SDS011;39836;52.754;6.866;2023-03-05T04:07:27;16.02;;;5.18;;
53925;SDS011;39836;52.754;6.866;2023-03-05T04:09:53;15.90;;;3.90;;
53925;SDS011;39836;52.754;6.866;2023-03-05T04:12:19;8.15;;;3.55;;
53925;SDS011;39836;52.754;6.866;2023-03-05T04:14:46;15.32;;;3.50;;
53925;SDS011;39836;52.754;6.866;2023-03-05T04:17:13;10.75;;;3.58;;
53925;SDS011;39836;52.754;6.866;2023-03-05T04:19:39;9.05;;;3.45;;
53925;SDS011;39836;52.754;6.866;2023-03-05T04:22:10;11.32;;;3.53;;
53925;SDS011;39836;52.754;6.866;2023-03-05T04:24:37;12.95;;;3.80;;
53925;SDS011;39836;52.754;6.866;2023-03-05T04:27:03;11.40;;;3.50;;
53925;SDS011;39836;52.754;6.866;2023-03-05T04:29:29;9.73;;;3.40;;
53925;SDS011;39836;52.754;6.866;2023-03-05T04:31:55;12.90;;;3.55;;
53925;SDS011;39836;52.754;6.866;2023-03-05T04:34:20;15.68;;;3.90;;
53925;SDS011;39836;52.754;6.866;2023-03-05T04:36:46;12.15;;;4.35;;
53925;SDS011;39836;52.754;6.866;2023-03-05T04:39:12;6.95;;;3.10;;
53925;SDS011;39836;52.754;6.866;2023-03-05T04:41:37;9.73;;;3.00;;
53925;SDS011;39836;52.754;6.866;2023-03-05T04:44:03;10.40;;;3.50;;
53925;SDS011;39836;52.754;6.866;2023-03-05T04:46:29;8.00;;;3.13;;
53925;SDS011;39836;52.754;6.866;2023-03-05T04:48:55;6.03;;;3.03;;
53925;SDS011;39836;52.754;6.866;2023-03-05T04:51:21;9.18;;;3.17;;
53925;SDS011;39836;52.754;6.866;2023-03-05T04:53:47;9.52;;;3.20;;
53925;SDS011;39836;52.754;6.866;2023-03-05T04:56:13;7.32;;;3.08;;
53925;SDS011;39836;52.754;6.866;2023-03-05T04:58:39;10.43;;;3.25;;
53925;SDS011;39836;52.754;6.866;2023-03-05T05:01:05;5.93;;;2.70;;
53925;SDS011;39836;52.754;6.866;2023-03-05T05:03:31;5.82;;;3.15;;
53925;SDS011;39836;52.754;6.866;2023-03-05T05:05:58;5.75;;;2.83;;
53925;SDS011;39836;52.754;6.866;2023-03-05T05:08:25;5.22;;;2.55;;
53925;SDS011;39836;52.754;6.866;2023-03-05T05:10:55;9.00;;;2.90;;
53925;SDS011;39836;52.754;6.866;2023-03-05T05:13:22;8.18;;;3.17;;
53925;SDS011;39836;52.754;6.866;2023-03-05T05:15:48;9.50;;;2.92;;
53925;SDS011;39836;52.754;6.866;2023-03-05T05:18:13;4.85;;;2.63;;
53925;SDS011;39836;52.754;6.866;2023-03-05T05:20:39;6.20;;;2.95;;
53925;SDS011;39836;52.754;6.866;2023-03-05T05:23:05;5.22;;;3.30;;
53925;SDS011;39836;52.754;6.866;2023-03-05T05:25:30;4.18;;;2.42;;
53925;SDS011;39836;52.754;6.866;2023-03-05T05:27:56;4.35;;;2.58;;
53925;SDS011;39836;52.754;6.866;2023-03-05T05:30:22;10.13;;;3.20;;
53925;SDS011;39836;52.754;6.866;2023-03-05T05:32:47;10.27;;;2.70;;
53925;SDS011;39836;52.754;6.866;2023-03-05T05:35:13;4.13;;;2.55;;
53925;SDS011;39836;52.754;6.866;2023-03-05T05:37:39;4.80;;;2.88;;
53925;SDS011;39836;52.754;6.866;2023-03-05T05:40:04;4.30;;;2.53;;
53925;SDS011;39836;52.754;6.866;2023-03-05T05:42:32;4.90;;;2.60;;
53925;SDS011;39836;52.754;6.866;2023-03-05T05:44:58;5.88;;;2.70;;
53925;SDS011;39836;52.754;6.866;2023-03-05T05:47:24;6.13;;;2.50;;
53925;SDS011;39836;52.754;6.866;2023-03-05T05:49:50;4.95;;;2.65;;
53925;SDS011;39836;52.754;6.866;2023-03-05T05:52:15;5.57;;;2.65;;
53925;SDS011;39836;52.754;6.866;2023-03-05T05:54:41;5.45;;;3.03;;
53925;SDS011;39836;52.754;6.866;2023-03-05T05:57:07;6.90;;;2.88;;
53925;SDS011;39836;52.754;6.866;2023-03-05T05:59:33;5.57;;;2.55;;
53925;SDS011;39836;52.754;6.866;2023-03-05T06:01:59;7.07;;;2.90;;
53925;SDS011;39836;52.754;6.866;2023-03-05T06:04:24;6.35;;;2.85;;
53925;SDS011;39836;52.754;6.866;2023-03-05T06:06:50;6.72;;;3.00;;
53925;SDS011;39836;52.754;6.866;2023-03-05T06:09:16;5.95;;;2.95;;
53925;SDS011;39836;52.754;6.866;2023-03-05T06:11:42;13.02;;;3.50;;
53925;SDS011;39836;52.754;6.866;2023-03-05T06:14:08;10.57;;;2.80;;
53925;SDS011;39836;52.754;6.866;2023-03-05T06:16:36;8.07;;;2.75;;
53925;SDS011;39836;52.754;6.866;2023-03-05T06:19:02;6.60;;;2.70;;
53925;SDS011;39836;52.754;6.866;2023-03-05T06:21:28;4.35;;;2.40;;
53925;SDS011;39836;52.754;6.866;2023-03-05T06:23:54;8.95;;;3.00;;
53925;SDS011;39836;52.754;6.866;2023-03-05T06:26:22;7.72;;;3.30;;
53925;SDS011;39836;52.754;6.866;2023-03-05T06:28:49;6.97;;;3.38;;
53925;SDS011;39836;52.754;6.866;2023-03-05T06:31:17;7.70;;;2.80;;
53925;SDS011;39836;52.754;6.866;2023-03-05T06:33:49;6.78;;;3.45;;
53925;SDS011;39836;52.754;6.866;2023-03-05T06:36:16;8.25;;;3.33;;
53925;SDS011;39836;52.754;6.866;2023-03-05T06:38:43;9.57;;;2.90;;
53925;SDS011;39836;52.754;6.866;2023-03-05T06:41:10;6.50;;;3.13;;
53925;SDS011;39836;52.754;6.866;2023-03-05T06:43:42;7.10;;;3.00;;
53925;SDS011;39836;52.754;6.866;2023-03-05T06:46:10;9.18;;;3.05;;
53925;SDS011;39836;52.754;6.866;2023-03-05T06:48:38;9.90;;;3.15;;
53925;SDS011;39836;52.754;6.866;2023-03-05T06:51:04;10.02;;;3.30;;
53925;SDS011;39836;52.754;6.866;2023-03-05T06:53:30;5.03;;;2.83;;
53925;SDS011;39836;52.754;6.866;2023-03-05T06:55:55;8.27;;;3.05;;
53925;SDS011;39836;52.754;6.866;2023-03-05T06:58:21;5.55;;;2.83;;
53925;SDS011;39836;52.754;6.866;2023-03-05T07:00:47;13.30;;;3.30;;
53925;SDS011;39836;52.754;6.866;2023-03-05T07:03:13;7.63;;;2.95;;
53925;SDS011;39836;52.754;6.866;2023-03-05T07:05:39;8.80;;;3.10;;
53925;SDS011;39836;52.754;6.866;2023-03-05T07:08:06;7.75;;;3.33;;
53925;SDS011;39836;52.754;6.866;2023-03-05T07:10:36;5.75;;;2.70;;
53925;SDS011;39836;52.754;6.866;2023-03-05T07:13:04;7.90;;;3.00;;
53925;SDS011;39836;52.754;6.866;2023-03-05T07:15:29;5.32;;;3.00;;
53925;SDS011;39836;52.754;6.866;2023-03-05T07:17:55;9.15;;;3.28;;
53925;SDS011;39836;52.754;6.866;2023-03-05T07:20:21;4.60;;;2.92;;
53925;SDS011;39836;52.754;6.866;2023-03-05T07:22:47;10.38;;;3.10;;
53925;SDS011;39836;52.754;6.866;2023-03-05T07:25:12;6.78;;;2.80;;
53925;SDS011;39836;52.754;6.866;2023-03-05T07:27:38;6.72;;;3.00;;
53925;SDS011;39836;52.754;6.866;2023-03-05T07:30:04;5.82;;;2.90;;
53925;SDS011;39836;52.754;6.866;2023-03-05T07:32:31;8.13;;;3.75;;
53925;SDS011;39836;52.754;6.866;2023-03-05T07:34:59;7.80;;;2.78;;
53925;SDS011;39836;52.754;6.866;2023-03-05T07:37:25;11.88;;;3.22;;
53925;SDS011;39836;52.754;6.866;2023-03-05T07:39:50;9.98;;;3.45;;
53925;SDS011;39836;52.754;6.866;2023-03-05T07:42:16;10.93;;;2.97;;
53925;SDS011;39836;52.754;6.866;2023-03-05T07:44:42;6.82;;;3.15;;
53925;SDS011;39836;52.754;6.866;2023-03-05T07:47:07;7.60;;;3.03;;
53925;SDS011;39836;52.754;6.866;2023-03-05T07:49:33;5.90;;;3.08;;
53925;SDS011;39836;52.754;6.866;2023-03-05T07:51:59;7.13;;;2.85;;
53925;SDS011;39836;52.754;6.866;2023-03-05T07:54:25;11.38;;;3.35;;
53925;SDS011;39836;52.754;6.866;2023-03-05T07:56:51;7.68;;;3.30;;
53925;SDS011;39836;52.754;6.866;2023-03-05T07:59:19;12.82;;;3.80;;
53925;SDS011;39836;52.754;6.866;2023-03-05T08:01:45;13.45;;;3.30;;
53925;SDS011;39836;52.754;6.866;2023-03-05T08:04:10;9.30;;;3.20;;
53925;SDS011;39836;52.754;6.866;2023-03-05T08:06:40;10.70;;;2.80;;
53925;SDS011;39836;52.754;6.866;2023-03-05T08:09:06;8.63;;;2.78;;
53925;SDS011;39836;52.754;6.866;2023-03-05T08:11:31;7.20;;;2.42;;
53925;SDS011;39836;52.754;6.866;2023-03-05T08:13:57;9.95;;;2.90;;
53925;SDS011;39836;52.754;6.866;2023-03-05T08:16:24;8.95;;;2.90;;
53925;SDS011;39836;52.754;6.866;2023-03-05T08:18:52;7.00;;;3.00;;
53925;SDS011;39836;52.754;6.866;2023-03-05T08:21:22;9.05;;;2.60;;
53925;SDS011;39836;52.754;6.866;2023-03-05T08:23:51;7.25;;;3.28;;
53925;SDS011;39836;52.754;6.866;2023-03-05T08:26:18;6.50;;;2.65;;
53925;SDS011;39836;52.754;6.866;2023-03-05T08:28:45;9.85;;;2.83;;
53925;SDS011;39836;52.754;6.866;2023-03-05T08:31:12;9.90;;;2.72;;
53925;SDS011;39836;52.754;6.866;2023-03-05T08:33:39;5.93;;;2.70;;
53925;SDS011;39836;52.754;6.866;2023-03-05T08:36:05;6.25;;;2.50;;
53925;SDS011;39836;52.754;6.866;2023-03-05T08:38:32;8.15;;;2.10;;
53925;SDS011;39836;52.754;6.866;2023-03-05T08:40:58;5.70;;;2.55;;
53925;SDS011;39836;52.754;6.866;2023-03-05T08:43:24;6.38;;;2.70;;
53925;SDS011;39836;52.754;6.866;2023-03-05T08:45:50;6.72;;;2.75;;
53925;SDS011;39836;52.754;6.866;2023-03-05T08:48:17;7.65;;;2.78;;
53925;SDS011;39836;52.754;6.866;2023-03-05T08:50:44;10.32;;;3.30;;
53925;SDS011;39836;52.754;6.866;2023-03-05T08:53:10;5.60;;;2.40;;
53925;SDS011;39836;52.754;6.866;2023-03-05T08:55:36;6.80;;;2.72;;
53925;SDS011;39836;52.754;6.866;2023-03-05T08:58:02;5.55;;;2.67;;
53925;SDS011;39836;52.754;6.866;2023-03-05T09:00:28;7.70;;;3.30;;
53925;SDS011;39836;52.754;6.866;2023-03-05T09:02:54;9.43;;;2.67;;
53925;SDS011;39836;52.754;6.866;2023-03-05T09:05:20;10.88;;;3.00;;
53925;SDS011;39836;52.754;6.866;2023-03-05T09:07:46;5.80;;;2.42;;
53925;SDS011;39836;52.754;6.866;2023-03-05T09:10:12;11.65;;;2.60;;
53925;SDS011;39836;52.754;6.866;2023-03-05T09:12:39;5.43;;;2.53;;
53925;SDS011;39836;52.754;6.866;2023-03-05T09:15:06;10.93;;;2.50;;
53925;SDS011;39836;52.754;6.866;2023-03-05T09:17:36;10.45;;;3.17;;
53925;SDS011;39836;52.754;6.866;2023-03-05T09:20:03;10.02;;;2.67;;
53925;SDS011;39836;52.754;6.866;2023-03-05T09:22:30;10.10;;;2.47;;
53925;SDS011;39836;52.754;6.866;2023-03-05T09:24:56;10.60;;;2.50;;
53925;SDS011;39836;52.754;6.866;2023-03-05T09:27:21;9.45;;;2.47;;
53925;SDS011;39836;52.754;6.866;2023-03-05T09:29:47;10.65;;;3.00;;
53925;SDS011;39836;52.754;6.866;2023-03-05T09:32:13;15.02;;;3.03;;
53925;SDS011;39836;52.754;6.866;2023-03-05T09:34:40;9.18;;;2.22;;
53925;SDS011;39836;52.754;6.866;2023-03-05T09:37:05;9.57;;;2.25;;
53925;SDS011;39836;52.754;6.866;2023-03-05T09:39:32;13.52;;;2.40;;
53925;SDS011;39836;52.754;6.866;2023-03-05T09:50:43;4.15;;;1.90;;
53925;SDS011;39836;52.754;6.866;2023-03-05T09:53:34;11.98;;;2.45;;
53925;SDS011;39836;52.754;6.866;2023-03-05T09:56:18;6.32;;;2.20;;
53925;SDS011;39836;52.754;6.866;2023-03-05T09:58:48;4.40;;;1.98;;
53925;SDS011;39836;52.754;6.866;2023-03-05T10:01:21;10.05;;;2.42;;
53925;SDS011;39836;52.754;6.866;2023-03-05T10:04:00;5.85;;;2.25;;
53925;SDS011;39836;52.754;6.866;2023-03-05T10:06:50;11.45;;;2.45;;
53925;SDS011;39836;52.754;6.866;2023-03-05T10:09:30;5.97;;;2.30;;
53925;SDS011;39836;52.754;6.866;2023-03-05T10:12:24;9.57;;;2.63;;
53925;SDS011;39836;52.754;6.866;2023-03-05T10:18:21;6.05;;;2.10;;
53925;SDS011;39836;52.754;6.866;2023-03-05T10:21:09;8.10;;;2.25;;
53925;SDS011;39836;52.754;6.866;2023-03-05T10:31:52;12.35;;;2.60;;
53925;SDS011;39836;52.754;6.866;2023-03-05T10:37:36;10.05;;;2.63;;
53925;SDS011;39836;52.754;6.866;2023-03-05T10:43:28;3.03;;;1.63;;
53925;SDS011;39836;52.754;6.866;2023-03-05T10:45:57;9.13;;;1.80;;
53925;SDS011;39836;52.754;6.866;2023-03-05T10:51:09;6.30;;;1.60;;
53925;SDS011;39836;52.754;6.866;2023-03-05T10:56:23;13.27;;;2.55;;
53925;SDS011;39836;52.754;6.866;2023-03-05T10:58:51;7.85;;;1.98;;
53925;SDS011;39836;52.754;6.866;2023-03-05T11:01:18;8.10;;;1.80;;
53925;SDS011;39836;52.754;6.866;2023-03-05T11:03:54;8.15;;;1.90;;
53925;SDS011;39836;52.754;6.866;2023-03-05T11:14:37;8.82;;;1.90;;
53925;SDS011;39836;52.754;6.866;2023-03-05T11:17:24;2.85;;;1.77;;
53925;SDS011;39836;52.754;6.866;2023-03-05T11:19:56;2.97;;;1.63;;
53925;SDS011;39836;52.754;6.866;2023-03-05T11:22:42;5.10;;;1.98;;
53925;SDS011;39836;52.754;6.866;2023-03-05T11:25:25;6.05;;;1.80;;
53925;SDS011;39836;52.754;6.866;2023-03-05T11:27:56;3.15;;;1.63;;
53925;SDS011;39836;52.754;6.866;2023-03-05T11:30:24;5.80;;;1.95;;
53925;SDS011;39836;52.754;6.866;2023-03-05T11:35:40;5.53;;;2.13;;
53925;SDS011;39836;52.754;6.866;2023-03-05T11:38:14;7.75;;;1.95;;
53925;SDS011;39836;52.754;6.866;2023-03-05T11:40:40;6.47;;;1.65;;
53925;SDS011;39836;52.754;6.866;2023-03-05T11:43:08;3.75;;;2.00;;
53925;SDS011;39836;52.754;6.866;2023-03-05T11:45:43;6.68;;;2.42;;
53925;SDS011;39836;52.754;6.866;2023-03-05T11:48:11;5.65;;;2.03;;
53925;SDS011;39836;52.754;6.866;2023-03-05T11:50:59;3.72;;;1.88;;
53925;SDS011;39836;52.754;6.866;2023-03-05T11:53:27;9.45;;;2.08;;
53925;SDS011;39836;52.754;6.866;2023-03-05T11:58:47;5.68;;;1.80;;
53925;SDS011;39836;52.754;6.866;2023-03-05T12:01:20;6.55;;;2.20;;
53925;SDS011;39836;52.754;6.866;2023-03-05T12:03:48;5.65;;;1.98;;
53925;SDS011;39836;52.754;6.866;2023-03-05T12:09:06;3.08;;;2.00;;
53925;SDS011;39836;52.754;6.866;2023-03-05T12:11:37;8.70;;;2.10;;
53925;SDS011;39836;52.754;6.866;2023-03-05T12:16:52;4.07;;;2.00;;
53925;SDS011;39836;52.754;6.866;2023-03-05T12:21:54;6.53;;;2.08;;
53925;SDS011;39836;52.754;6.866;2023-03-05T12:29:49;3.47;;;1.73;;
53925;SDS011;39836;52.754;6.866;2023-03-05T12:35:02;7.50;;;1.83;;
53925;SDS011;39836;52.754;6.866;2023-03-05T12:39:58;4.18;;;1.50;;
53925;SDS011;39836;52.754;6.866;2023-03-05T12:52:58;4.57;;;1.67;;
53925;SDS011;39836;52.754;6.866;2023-03-05T13:03:39;9.90;;;2.00;;
53925;SDS011;39836;52.754;6.866;2023-03-05T13:06:34;5.80;;;1.80;;
53925;SDS011;39836;52.754;6.866;2023-03-05T13:12:02;5.93;;;1.58;;
53925;SDS011;39836;52.754;6.866;2023-03-05T13:19:52;4.60;;;2.10;;
53925;SDS011;39836;52.754;6.866;2023-03-05T13:22:17;3.25;;;1.40;;
53925;SDS011;39836;52.754;6.866;2023-03-05T13:24:43;4.60;;;1.48;;
53925;SDS011;39836;52.754;6.866;2023-03-05T13:30:18;8.93;;;2.10;;
53925;SDS011;39836;52.754;6.866;2023-03-05T13:32:48;5.90;;;1.77;;
53925;SDS011;39836;52.754;6.866;2023-03-05T13:35:16;7.80;;;1.85;;
53925;SDS011;39836;52.754;6.866;2023-03-05T13:37:42;4.32;;;1.40;;
53925;SDS011;39836;52.754;6.866;2023-03-05T13:42:46;5.63;;;1.60;;
53925;SDS011;39836;52.754;6.866;2023-03-05T13:45:30;2.33;;;1.10;;
53925;SDS011;39836;52.754;6.866;2023-03-05T13:47:57;4.72;;;1.70;;
53925;SDS011;39836;52.754;6.866;2023-03-05T13:52:53;4.80;;;1.70;;
53925;SDS011;39836;52.754;6.866;2023-03-05T13:55:19;6.65;;;2.00;;
53925;SDS011;39836;52.754;6.866;2023-03-05T13:57:46;6.22;;;2.00;;
53925;SDS011;39836;52.754;6.866;2023-03-05T14:02:56;5.53;;;1.92;;
53925;SDS011;39836;52.754;6.866;2023-03-05T14:05:25;5.43;;;2.00;;
53925;SDS011;39836;52.754;6.866;2023-03-05T14:07:51;4.15;;;2.25;;
53925;SDS011;39836;52.754;6.866;2023-03-05T14:10:29;8.82;;;1.90;;
53925;SDS011;39836;52.754;6.866;2023-03-05T14:13:13;3.75;;;1.80;;
53925;SDS011;39836;52.754;6.866;2023-03-05T14:16:01;6.40;;;2.17;;
53925;SDS011;39836;52.754;6.866;2023-03-05T14:18:27;4.40;;;1.83;;
53925;SDS011;39836;52.754;6.866;2023-03-05T14:26:10;4.72;;;1.90;;
53925;SDS011;39836;52.754;6.866;2023-03-05T14:28:42;5.28;;;2.03;;
53925;SDS011;39836;52.754;6.866;2023-03-05T14:31:13;4.28;;;2.00;;
53925;SDS011;39836;52.754;6.866;2023-03-05T14:33:41;4.93;;;2.22;;
53925;SDS011;39836;52.754;6.866;2023-03-05T14:36:07;4.13;;;1.70;;
53925;SDS011;39836;52.754;6.866;2023-03-05T14:38:34;5.53;;;1.98;;
53925;SDS011;39836;52.754;6.866;2023-03-05T14:43:59;7.63;;;1.92;;
53925;SDS011;39836;52.754;6.866;2023-03-05T14:46:26;4.63;;;1.90;;
53925;SDS011;39836;52.754;6.866;2023-03-05T14:48:52;6.85;;;1.83;;
53925;SDS011;39836;52.754;6.866;2023-03-05T14:51:18;8.77;;;2.30;;
53925;SDS011;39836;52.754;6.866;2023-03-05T14:53:45;4.50;;;1.83;;
53925;SDS011;39836;52.754;6.866;2023-03-05T14:56:16;5.28;;;1.70;;
53925;SDS011;39836;52.754;6.866;2023-03-05T14:58:47;6.05;;;1.75;;
53925;SDS011;39836;52.754;6.866;2023-03-05T15:01:14;5.72;;;1.92;;
53925;SDS011;39836;52.754;6.866;2023-03-05T15:03:39;7.25;;;2.35;;
53925;SDS011;39836;52.754;6.866;2023-03-05T15:06:06;6.88;;;1.92;;
53925;SDS011;39836;52.754;6.866;2023-03-05T15:08:38;4.45;;;1.98;;
53925;SDS011;39836;52.754;6.866;2023-03-05T15:11:04;1.90;;;1.75;;
53925;SDS011;39836;52.754;6.866;2023-03-05T15:13:31;11.88;;;2.17;;
53925;SDS011;39836;52.754;6.866;2023-03-05T15:15:57;4.40;;;1.80;;
53925;SDS011;39836;52.754;6.866;2023-03-05T15:18:23;2.67;;;1.83;;
53925;SDS011;39836;52.754;6.866;2023-03-05T15:20:48;2.20;;;1.50;;
53925;SDS011;39836;52.754;6.866;2023-03-05T15:23:17;4.43;;;1.85;;
53925;SDS011;39836;52.754;6.866;2023-03-05T15:25:43;6.88;;;2.30;;
53925;SDS011;39836;52.754;6.866;2023-03-05T15:28:09;5.30;;;2.10;;
53925;SDS011;39836;52.754;6.866;2023-03-05T15:30:35;7.28;;;2.00;;
53925;SDS011;39836;52.754;6.866;2023-03-05T15:33:04;8.05;;;2.35;;
53925;SDS011;39836;52.754;6.866;2023-03-05T15:35:32;6.78;;;1.90;;
53925;SDS011;39836;52.754;6.866;2023-03-05T15:37:58;3.55;;;2.00;;
53925;SDS011;39836;52.754;6.866;2023-03-05T15:40:24;4.82;;;2.28;;
53925;SDS011;39836;52.754;6.866;2023-03-05T15:42:52;6.70;;;2.20;;
53925;SDS011;39836;52.754;6.866;2023-03-05T15:45:18;7.10;;;2.17;;
53925;SDS011;39836;52.754;6.866;2023-03-05T15:47:44;6.72;;;2.42;;
53925;SDS011;39836;52.754;6.866;2023-03-05T15:50:12;7.22;;;2.55;;
53925;SDS011;39836;52.754;6.866;2023-03-05T15:52:37;9.10;;;2.20;;
53925;SDS011;39836;52.754;6.866;2023-03-05T15:55:03;5.90;;;2.30;;
53925;SDS011;39836;52.754;6.866;2023-03-05T15:57:29;7.63;;;2.00;;
53925;SDS011;39836;52.754;6.866;2023-03-05T16:00:03;8.60;;;2.28;;
53925;SDS011;39836;52.754;6.866;2023-03-05T16:02:30;7.78;;;2.08;;
53925;SDS011;39836;52.754;6.866;2023-03-05T16:04:56;10.50;;;2.55;;
53925;SDS011;39836;52.754;6.866;2023-03-05T16:07:21;7.38;;;2.13;;
53925;SDS011;39836;52.754;6.866;2023-03-05T16:09:47;4.85;;;1.90;;
53925;SDS011;39836;52.754;6.866;2023-03-05T16:12:19;4.40;;;2.10;;
53925;SDS011;39836;52.754;6.866;2023-03-05T16:14:55;4.55;;;2.50;;
53925;SDS011;39836;52.754;6.866;2023-03-05T16:17:20;4.95;;;2.28;;
53925;SDS011;39836;52.754;6.866;2023-03-05T16:19:48;5.22;;;2.45;;
53925;SDS011;39836;52.754;6.866;2023-03-05T16:22:16;8.23;;;3.10;;
53925;SDS011;39836;52.754;6.866;2023-03-05T16:24:42;8.13;;;2.92;;
53925;SDS011;39836;52.754;6.866;2023-03-05T16:27:08;6.75;;;2.35;;
53925;SDS011;39836;52.754;6.866;2023-03-05T16:29:34;8.70;;;2.42;;
53925;SDS011;39836;52.754;6.866;2023-03-05T16:32:00;6.57;;;2.65;;
53925;SDS011;39836;52.754;6.866;2023-03-05T16:34:28;9.85;;;3.08;;
53925;SDS011;39836;52.754;6.866;2023-03-05T16:36:53;6.07;;;2.25;;
53925;SDS011;39836;52.754;6.866;2023-03-05T16:39:20;6.85;;;2.40;;